sensor_id;sensor_type;location;lat;lon;timestamp;pressure;altitude;pressure_sealevel;temperature;humidity
30598;BME280;17365;48.878;8.334;2022-11-15T00:01:32;99795.00;;;9.26;100.00
30598;BME280;17365;48.878;8.334;2022-11-15T00:03:57;99786.38;;;9.29;100.00
30598;BME280;17365;48.878;8.334;2022-11-15T00:06:22;99788.09;;;9.36;100.00
30598;BME280;17365;48.878;8.334;2022-11-15T00:08:48;99788.13;;;9.42;100.00
30598;BME280;17365;48.878;8.334;2022-11-15T00:11:13;99781.22;;;9.41;100.00
30598;BME280;17365;48.878;8.334;2022-11-15T00:13:39;99786.41;;;9.43;100.00
30598;BME280;17365;48.878;8.334;2022-11-15T00:16:04;99786.41;;;9.43;100.00
30598;BME280;17365;48.878;8.334;2022-11-15T00:18:30;99776.88;;;9.37;100.00
30598;BME280;17365;48.878;8.334;2022-11-15T00:20:56;99787.25;;;9.39;100.00
30598;BME280;17365;48.878;8.334;2022-11-15T00:23:22;99792.41;;;9.39;100.00
30598;BME280;17365;48.878;8.334;2022-11-15T00:25:47;99790.69;;;9.38;100.00
30598;BME280;17365;48.878;8.334;2022-11-15T00:28:19;99788.97;;;9.35;100.00
30598;BME280;17365;48.878;8.334;2022-11-15T00:30:45;99789.84;;;9.34;100.00
30598;BME280;17365;48.878;8.334;2022-11-15T00:33:10;99784.63;;;9.25;100.00
30598;BME280;17365;48.878;8.334;2022-11-15T00:35:35;99777.72;;;9.16;100.00
30598;BME280;17365;48.878;8.334;2022-11-15T00:38:01;99783.78;;;9.20;100.00
30598;BME280;17365;48.878;8.334;2022-11-15T00:40:27;99781.19;;;9.23;100.00
30598;BME280;17365;48.878;8.334;2022-11-15T00:42:53;99785.53;;;9.31;100.00
30598;BME280;17365;48.878;8.334;2022-11-15T00:45:18;99774.31;;;9.36;100.00
30598;BME280;17365;48.878;8.334;2022-11-15T00:47:44;99774.31;;;9.40;100.00
30598;BME280;17365;48.878;8.334;2022-11-15T00:50:10;99764.81;;;9.31;100.00
30598;BME280;17365;48.878;8.334;2022-11-15T00:52:36;99757.88;;;9.26;100.00
30598;BME280;17365;48.878;8.334;2022-11-15T00:55:01;99770.84;;;9.24;100.00
30598;BME280;17365;48.878;8.334;2022-11-15T00:57:27;99763.06;;;9.27;100.00
30598;BME280;17365;48.878;8.334;2022-11-15T00:59:52;99759.66;;;9.30;100.00
30598;BME280;17365;48.878;8.334;2022-11-15T01:02:17;99754.44;;;9.24;100.00
30598;BME280;17365;48.878;8.334;2022-11-15T01:04:43;99748.41;;;9.32;100.00
30598;BME280;17365;48.878;8.334;2022-11-15T01:07:08;99747.56;;;9.33;100.00
30598;BME280;17365;48.878;8.334;2022-11-15T01:09:33;99742.38;;;9.38;100.00
30598;BME280;17365;48.878;8.334;2022-11-15T01:11:59;99738.91;;;9.39;100.00
30598;BME280;17365;48.878;8.334;2022-11-15T01:14:24;99745.81;;;9.37;100.00
30598;BME280;17365;48.878;8.334;2022-11-15T01:16:49;99744.09;;;9.38;100.00
30598;BME280;17365;48.878;8.334;2022-11-15T01:19:15;99745.00;;;9.41;100.00
30598;BME280;17365;48.878;8.334;2022-11-15T01:21:40;99753.63;;;9.40;100.00
30598;BME280;17365;48.878;8.334;2022-11-15T01:24:05;99749.31;;;9.41;100.00
30598;BME280;17365;48.878;8.334;2022-11-15T01:26:31;99744.97;;;9.40;100.00
30598;BME280;17365;48.878;8.334;2022-11-15T01:28:56;99744.97;;;9.37;100.00
30598;BME280;17365;48.878;8.334;2022-11-15T01:31:22;99748.44;;;9.42;100.00
30598;BME280;17365;48.878;8.334;2022-11-15T01:33:48;99739.81;;;9.41;100.00
30598;BME280;17365;48.878;8.334;2022-11-15T01:36:19;99745.81;;;9.36;100.00
30598;BME280;17365;48.878;8.334;2022-11-15T01:38:47;99743.25;;;9.43;100.00
30598;BME280;17365;48.878;8.334;2022-11-15T01:41:17;99742.38;;;9.49;100.00
30598;BME280;17365;48.878;8.334;2022-11-15T01:43:43;99737.22;;;9.55;100.00
30598;BME280;17365;48.878;8.334;2022-11-15T01:46:23;99738.09;;;9.52;100.00
30598;BME280;17365;48.878;8.334;2022-11-15T01:48:51;99726.00;;;9.57;100.00
30598;BME280;17365;48.878;8.334;2022-11-15T01:51:19;99728.56;;;9.56;100.00
30598;BME280;17365;48.878;8.334;2022-11-15T01:53:47;99726.00;;;9.57;100.00
30598;BME280;17365;48.878;8.334;2022-11-15T01:56:23;99708.72;;;9.53;100.00
30598;BME280;17365;48.878;8.334;2022-11-15T01:58:51;99717.34;;;9.57;100.00
30598;BME280;17365;48.878;8.334;2022-11-15T02:01:17;99713.03;;;9.59;100.00
30598;BME280;17365;48.878;8.334;2022-11-15T02:03:49;99715.63;;;9.60;100.00
30598;BME280;17365;48.878;8.334;2022-11-15T02:06:16;99707.84;;;9.57;100.00
30598;BME280;17365;48.878;8.334;2022-11-15T02:08:42;99703.56;;;9.46;100.00
30598;BME280;17365;48.878;8.334;2022-11-15T02:11:08;99707.84;;;9.48;100.00
30598;BME280;17365;48.878;8.334;2022-11-15T02:13:34;99698.38;;;9.46;100.00
30598;BME280;17365;48.878;8.334;2022-11-15T02:16:19;99688.00;;;9.46;100.00
30598;BME280;17365;48.878;8.334;2022-11-15T02:28:26;99674.19;;;9.48;100.00
30598;BME280;17365;48.878;8.334;2022-11-15T02:30:40;99651.78;;;9.35;100.00
30598;BME280;17365;48.878;8.334;2022-11-15T02:38:54;99668.16;;;9.51;100.00
30598;BME280;17365;48.878;8.334;2022-11-15T02:41:30;99652.63;;;9.57;100.00
30598;BME280;17365;48.878;8.334;2022-11-15T02:44:19;99657.78;;;9.61;100.00
30598;BME280;17365;48.878;8.334;2022-11-15T02:46:53;99666.41;;;9.68;100.00
30598;BME280;17365;48.878;8.334;2022-11-15T02:49:43;99662.94;;;9.74;100.00
30598;BME280;17365;48.878;8.334;2022-11-15T02:52:14;99661.22;;;9.77;100.00
30598;BME280;17365;48.878;8.334;2022-11-15T02:54:41;99656.91;;;9.75;100.00
30598;BME280;17365;48.878;8.334;2022-11-15T02:57:16;99652.56;;;9.78;100.00
30598;BME280;17365;48.878;8.334;2022-11-15T03:08:18;99653.47;;;9.59;100.00
30598;BME280;17365;48.878;8.334;2022-11-15T03:11:03;99641.41;;;9.40;100.00
30598;BME280;17365;48.878;8.334;2022-11-15T03:13:53;99645.72;;;9.56;100.00
30598;BME280;17365;48.878;8.334;2022-11-15T03:16:28;99641.38;;;9.62;100.00
30598;BME280;17365;48.878;8.334;2022-11-15T03:19:07;99630.16;;;9.59;100.00
30598;BME280;17365;48.878;8.334;2022-11-15T03:21:38;99635.34;;;9.57;100.00
30598;BME280;17365;48.878;8.334;2022-11-15T03:24:06;99625.84;;;9.66;100.00
30598;BME280;17365;48.878;8.334;2022-11-15T03:26:34;99625.81;;;9.72;100.00
30598;BME280;17365;48.878;8.334;2022-11-15T03:29:24;99636.22;;;9.50;100.00
30598;BME280;17365;48.878;8.334;2022-11-15T03:32:11;99642.31;;;9.20;100.00
30598;BME280;17365;48.878;8.334;2022-11-15T03:34:44;99644.00;;;8.91;100.00
30598;BME280;17365;48.878;8.334;2022-11-15T03:37:12;99631.94;;;9.17;100.00
30598;BME280;17365;48.878;8.334;2022-11-15T03:39:38;99634.53;;;9.31;100.00
30598;BME280;17365;48.878;8.334;2022-11-15T03:42:24;99625.88;;;9.37;100.00
30598;BME280;17365;48.878;8.334;2022-11-15T03:47:48;99633.69;;;9.09;100.00
30598;BME280;17365;48.878;8.334;2022-11-15T03:50:18;99633.66;;;9.23;100.00
30598;BME280;17365;48.878;8.334;2022-11-15T03:52:45;99637.97;;;9.25;100.00
30598;BME280;17365;48.878;8.334;2022-11-15T03:55:14;99634.50;;;9.37;100.00
30598;BME280;17365;48.878;8.334;2022-11-15T03:57:40;99630.19;;;9.45;100.00
30598;BME280;17365;48.878;8.334;2022-11-15T04:00:06;99645.72;;;9.50;100.00
30598;BME280;17365;48.878;8.334;2022-11-15T04:02:31;99643.16;;;9.27;100.00
30598;BME280;17365;48.878;8.334;2022-11-15T04:04:57;99650.06;;;9.36;100.00
30598;BME280;17365;48.878;8.334;2022-11-15T04:07:22;99651.78;;;9.43;100.00
30598;BME280;17365;48.878;8.334;2022-11-15T04:09:47;99651.75;;;9.49;100.00
30598;BME280;17365;48.878;8.334;2022-11-15T04:12:36;99654.38;;;9.52;100.00
30598;BME280;17365;48.878;8.334;2022-11-15T04:15:13;99654.34;;;9.47;100.00
30598;BME280;17365;48.878;8.334;2022-11-15T04:17:41;99662.09;;;9.50;100.00
30598;BME280;17365;48.878;8.334;2022-11-15T04:20:15;99656.06;;;9.48;100.00
30598;BME280;17365;48.878;8.334;2022-11-15T04:23:00;99656.94;;;9.47;100.00
30598;BME280;17365;48.878;8.334;2022-11-15T04:25:45;99653.50;;;9.48;100.00
30598;BME280;17365;48.878;8.334;2022-11-15T04:28:12;99647.47;;;9.54;100.00
30598;BME280;17365;48.878;8.334;2022-11-15T04:30:37;99651.75;;;9.56;100.00
30598;BME280;17365;48.878;8.334;2022-11-15T04:33:02;99641.44;;;9.43;100.00
30598;BME280;17365;48.878;8.334;2022-11-15T04:35:28;99625.88;;;9.44;100.00
30598;BME280;17365;48.878;8.334;2022-11-15T04:37:54;99629.34;;;9.25;100.00
30598;BME280;17365;48.878;8.334;2022-11-15T04:40:19;99627.59;;;9.38;100.00
30598;BME280;17365;48.878;8.334;2022-11-15T04:42:45;99612.06;;;9.39;100.00
30598;BME280;17365;48.878;8.334;2022-11-15T04:45:10;99616.44;;;9.29;100.00
30598;BME280;17365;48.878;8.334;2022-11-15T04:47:36;99612.09;;;9.30;100.00
30598;BME280;17365;48.878;8.334;2022-11-15T04:50:02;99619.84;;;9.25;100.00
30598;BME280;17365;48.878;8.334;2022-11-15T04:52:28;99608.63;;;9.28;100.00
30598;BME280;17365;48.878;8.334;2022-11-15T04:54:53;99613.81;;;9.28;100.00
30598;BME280;17365;48.878;8.334;2022-11-15T04:57:19;99614.69;;;9.25;100.00
30598;BME280;17365;48.878;8.334;2022-11-15T04:59:44;99614.69;;;9.30;100.00
30598;BME280;17365;48.878;8.334;2022-11-15T05:02:09;99614.69;;;9.34;100.00
30598;BME280;17365;48.878;8.334;2022-11-15T05:04:34;99622.44;;;9.39;100.00
30598;BME280;17365;48.878;8.334;2022-11-15T05:07:00;99609.50;;;9.44;100.00
30598;BME280;17365;48.878;8.334;2022-11-15T05:09:25;99606.03;;;9.45;100.00
30598;BME280;17365;48.878;8.334;2022-11-15T05:11:50;99614.66;;;9.53;100.00
30598;BME280;17365;48.878;8.334;2022-11-15T05:14:16;99612.91;;;9.56;100.00
30598;BME280;17365;48.878;8.334;2022-11-15T05:16:41;99611.19;;;9.58;100.00
30598;BME280;17365;48.878;8.334;2022-11-15T05:19:09;99613.78;;;9.55;100.00
30598;BME280;17365;48.878;8.334;2022-11-15T05:21:35;99614.66;;;9.56;100.00
30598;BME280;17365;48.878;8.334;2022-11-15T05:24:02;99617.22;;;9.60;100.00
30598;BME280;17365;48.878;8.334;2022-11-15T05:26:27;99607.72;;;9.64;100.00
30598;BME280;17365;48.878;8.334;2022-11-15T05:28:54;99606.00;;;9.65;100.00
30598;BME280;17365;48.878;8.334;2022-11-15T05:31:20;99614.63;;;9.62;100.00
30598;BME280;17365;48.878;8.334;2022-11-15T05:33:45;99614.66;;;9.56;100.00
30598;BME280;17365;48.878;8.334;2022-11-15T05:36:34;99606.03;;;9.54;100.00
30598;BME280;17365;48.878;8.334;2022-11-15T05:39:01;99612.06;;;9.63;100.00
30598;BME280;17365;48.878;8.334;2022-11-15T05:41:33;99604.28;;;9.59;100.00
30598;BME280;17365;48.878;8.334;2022-11-15T05:44:01;99604.28;;;9.56;100.00
30598;BME280;17365;48.878;8.334;2022-11-15T05:46:28;99609.47;;;9.57;100.00
30598;BME280;17365;48.878;8.334;2022-11-15T05:48:54;99606.00;;;9.51;100.00
30598;BME280;17365;48.878;8.334;2022-11-15T05:51:21;99607.75;;;9.52;100.00
30598;BME280;17365;48.878;8.334;2022-11-15T05:53:48;99606.91;;;9.42;100.00
30598;BME280;17365;48.878;8.334;2022-11-15T05:56:14;99599.13;;;9.45;100.00
30598;BME280;17365;48.878;8.334;2022-11-15T05:58:40;99597.44;;;9.33;100.00
30598;BME280;17365;48.878;8.334;2022-11-15T06:01:05;99596.56;;;9.41;100.00
30598;BME280;17365;48.878;8.334;2022-11-15T06:03:31;99600.00;;;9.27;100.00
30598;BME280;17365;48.878;8.334;2022-11-15T06:05:56;99599.16;;;9.31;100.00
30598;BME280;17365;48.878;8.334;2022-11-15T06:08:22;99590.50;;;9.37;100.00
30598;BME280;17365;48.878;8.334;2022-11-15T06:10:47;99595.69;;;9.43;100.00
30598;BME280;17365;48.878;8.334;2022-11-15T06:13:13;99587.03;;;9.46;100.00
30598;BME280;17365;48.878;8.334;2022-11-15T06:15:38;99593.09;;;9.39;100.00
30598;BME280;17365;48.878;8.334;2022-11-15T06:18:03;99585.31;;;9.39;100.00
30598;BME280;17365;48.878;8.334;2022-11-15T06:20:29;99589.66;;;9.32;100.00
30598;BME280;17365;48.878;8.334;2022-11-15T06:22:59;99586.22;;;9.41;100.00
30598;BME280;17365;48.878;8.334;2022-11-15T06:25:25;99594.81;;;9.46;100.00
30598;BME280;17365;48.878;8.334;2022-11-15T06:27:55;99583.59;;;9.53;100.00
30598;BME280;17365;48.878;8.334;2022-11-15T06:30:21;99578.38;;;9.57;100.00
30598;BME280;17365;48.878;8.334;2022-11-15T06:32:46;99580.09;;;9.58;100.00
30598;BME280;17365;48.878;8.334;2022-11-15T06:35:12;99577.53;;;9.48;100.00
30598;BME280;17365;48.878;8.334;2022-11-15T06:37:38;99579.28;;;9.44;100.00
30598;BME280;17365;48.878;8.334;2022-11-15T06:40:03;99587.88;;;9.51;100.00
30598;BME280;17365;48.878;8.334;2022-11-15T06:42:29;99580.13;;;9.54;100.00
30598;BME280;17365;48.878;8.334;2022-11-15T06:44:54;99575.84;;;9.44;100.00
30598;BME280;17365;48.878;8.334;2022-11-15T06:47:19;99570.69;;;9.31;100.00
30598;BME280;17365;48.878;8.334;2022-11-15T06:49:45;99585.34;;;9.43;100.00
30598;BME280;17365;48.878;8.334;2022-11-15T06:52:10;99584.44;;;9.49;100.00
30598;BME280;17365;48.878;8.334;2022-11-15T06:54:35;99582.72;;;9.55;100.00
30598;BME280;17365;48.878;8.334;2022-11-15T06:57:01;99582.69;;;9.60;100.00
30598;BME280;17365;48.878;8.334;2022-11-15T06:59:26;99587.84;;;9.68;100.00
30598;BME280;17365;48.878;8.334;2022-11-15T07:01:51;99594.75;;;9.70;100.00
30598;BME280;17365;48.878;8.334;2022-11-15T07:04:16;99595.59;;;9.72;100.00
30598;BME280;17365;48.878;8.334;2022-11-15T07:06:42;99582.69;;;9.68;100.00
30598;BME280;17365;48.878;8.334;2022-11-15T07:09:07;99588.69;;;9.71;100.00
30598;BME280;17365;48.878;8.334;2022-11-15T07:11:33;99593.97;;;9.51;100.00
30598;BME280;17365;48.878;8.334;2022-11-15T07:13:59;99588.75;;;9.57;100.00
30598;BME280;17365;48.878;8.334;2022-11-15T07:16:24;99591.31;;;9.59;100.00
30598;BME280;17365;48.878;8.334;2022-11-15T07:18:50;99598.19;;;9.72;100.00
30598;BME280;17365;48.878;8.334;2022-11-15T07:21:15;99592.13;;;9.73;100.00
30598;BME280;17365;48.878;8.334;2022-11-15T07:23:40;99598.19;;;9.72;100.00
30598;BME280;17365;48.878;8.334;2022-11-15T07:26:07;99599.91;;;9.72;100.00
30598;BME280;17365;48.878;8.334;2022-11-15T07:28:33;99596.44;;;9.83;100.00
30598;BME280;17365;48.878;8.334;2022-11-15T07:31:02;99582.63;;;9.87;100.00
30598;BME280;17365;48.878;8.334;2022-11-15T07:33:27;99586.03;;;9.92;100.00
30598;BME280;17365;48.878;8.334;2022-11-15T07:35:53;99580.00;;;9.97;100.00
30598;BME280;17365;48.878;8.334;2022-11-15T07:38:18;99580.06;;;9.78;100.00
30598;BME280;17365;48.878;8.334;2022-11-15T07:40:47;99579.16;;;9.90;100.00
30598;BME280;17365;48.878;8.334;2022-11-15T07:43:12;99580.00;;;9.97;100.00
30598;BME280;17365;48.878;8.334;2022-11-15T07:45:44;99585.13;;;10.03;100.00
30598;BME280;17365;48.878;8.334;2022-11-15T07:48:10;99581.66;;;10.07;100.00
30598;BME280;17365;48.878;8.334;2022-11-15T07:50:35;99585.97;;;10.06;100.00
30598;BME280;17365;48.878;8.334;2022-11-15T07:53:00;99585.97;;;10.09;100.00
30598;BME280;17365;48.878;8.334;2022-11-15T07:55:27;99577.34;;;10.10;100.00
30598;BME280;17365;48.878;8.334;2022-11-15T07:58:03;99586.81;;;10.13;100.00
30598;BME280;17365;48.878;8.334;2022-11-15T08:00:29;99594.56;;;10.20;100.00
30598;BME280;17365;48.878;8.334;2022-11-15T08:03:05;99585.94;;;10.23;100.00
30598;BME280;17365;48.878;8.334;2022-11-15T08:05:31;99587.59;;;10.30;100.00
30598;BME280;17365;48.878;8.334;2022-11-15T08:07:56;99588.44;;;10.37;100.00
30598;BME280;17365;48.878;8.334;2022-11-15T08:10:22;99592.75;;;10.39;100.00
30598;BME280;17365;48.878;8.334;2022-11-15T08:12:47;99604.78;;;10.48;100.00
30598;BME280;17365;48.878;8.334;2022-11-15T08:15:12;99597.84;;;10.56;100.00
30598;BME280;17365;48.878;8.334;2022-11-15T08:17:38;99593.47;;;10.60;100.00
30598;BME280;17365;48.878;8.334;2022-11-15T08:20:03;99587.41;;;10.65;100.00
30598;BME280;17365;48.878;8.334;2022-11-15T08:22:29;99582.19;;;10.68;100.00
30598;BME280;17365;48.878;8.334;2022-11-15T08:24:55;99584.78;;;10.70;100.00
30598;BME280;17365;48.878;8.334;2022-11-15T08:27:20;99583.88;;;10.77;100.00
30598;BME280;17365;48.878;8.334;2022-11-15T08:29:45;99580.34;;;10.84;100.00
30598;BME280;17365;48.878;8.334;2022-11-15T08:32:12;99578.56;;;10.91;100.00
30598;BME280;17365;48.878;8.334;2022-11-15T08:34:38;99581.09;;;11.00;100.00
30598;BME280;17365;48.878;8.334;2022-11-15T08:37:04;99579.31;;;11.03;100.00
30598;BME280;17365;48.878;8.334;2022-11-15T08:39:29;99568.16;;;10.94;100.00
30598;BME280;17365;48.878;8.334;2022-11-15T08:41:54;99564.56;;;11.10;100.00
30598;BME280;17365;48.878;8.334;2022-11-15T08:44:20;99561.03;;;11.16;100.00
30598;BME280;17365;48.878;8.334;2022-11-15T08:46:46;99554.06;;;11.22;100.00
30598;BME280;17365;48.878;8.334;2022-11-15T08:49:11;99559.25;;;11.21;100.00
30598;BME280;17365;48.878;8.334;2022-11-15T08:51:36;99556.59;;;11.27;100.00
30598;BME280;17365;48.878;8.334;2022-11-15T08:54:01;99558.28;;;11.29;100.00
30598;BME280;17365;48.878;8.334;2022-11-15T08:56:27;99559.22;;;11.25;100.00
30598;BME280;17365;48.878;8.334;2022-11-15T08:58:52;99560.28;;;11.04;100.00
30598;BME280;17365;48.878;8.334;2022-11-15T09:01:19;99561.97;;;11.10;100.00
30598;BME280;17365;48.878;8.334;2022-11-15T09:03:45;99567.03;;;11.21;100.00
30598;BME280;17365;48.878;8.334;2022-11-15T09:06:10;99551.41;;;11.27;100.00
30598;BME280;17365;48.878;8.334;2022-11-15T09:08:36;99551.41;;;11.27;100.00
30598;BME280;17365;48.878;8.334;2022-11-15T09:11:06;99559.13;;;11.31;100.00
30598;BME280;17365;48.878;8.334;2022-11-15T09:13:31;99559.16;;;11.33;100.00
30598;BME280;17365;48.878;8.334;2022-11-15T09:15:58;99552.97;;;11.42;100.00
30598;BME280;17365;48.878;8.334;2022-11-15T09:18:24;99558.94;;;11.51;100.00
30598;BME280;17365;48.878;8.334;2022-11-15T09:20:50;99558.88;;;11.57;100.00
30598;BME280;17365;48.878;8.334;2022-11-15T09:23:15;99558.78;;;11.65;100.00
30598;BME280;17365;48.878;8.334;2022-11-15T09:25:41;99550.00;;;11.74;100.00
30598;BME280;17365;48.878;8.334;2022-11-15T09:28:07;99561.28;;;11.74;100.00
30598;BME280;17365;48.878;8.334;2022-11-15T09:30:32;99551.72;;;11.76;100.00
30598;BME280;17365;48.878;8.334;2022-11-15T09:32:57;99549.97;;;11.78;100.00
30598;BME280;17365;48.878;8.334;2022-11-15T09:35:23;99549.97;;;11.78;100.00
30598;BME280;17365;48.878;8.334;2022-11-15T09:37:48;99546.56;;;11.73;100.00
30598;BME280;17365;48.878;8.334;2022-11-15T09:40:14;99548.31;;;11.73;100.00
30598;BME280;17365;48.878;8.334;2022-11-15T09:43:02;99550.84;;;11.79;100.00
30598;BME280;17365;48.878;8.334;2022-11-15T09:45:35;99540.44;;;11.82;100.00
30598;BME280;17365;48.878;8.334;2022-11-15T09:48:19;99543.00;;;11.83;100.00
30598;BME280;17365;48.878;8.334;2022-11-15T09:50:51;99541.19;;;11.88;100.00
30598;BME280;17365;48.878;8.334;2022-11-15T09:56:26;99537.69;;;11.92;100.00
30598;BME280;17365;48.878;8.334;2022-11-15T10:03:58;99540.34;;;11.88;100.00
30598;BME280;17365;48.878;8.334;2022-11-15T10:06:26;99544.66;;;11.89;100.00
30598;BME280;17365;48.878;8.334;2022-11-15T10:09:15;99554.34;;;11.79;100.00
30598;BME280;17365;48.878;8.334;2022-11-15T10:11:42;99550.75;;;11.86;100.00
30598;BME280;17365;48.878;8.334;2022-11-15T10:14:16;99555.25;;;11.71;100.00
30598;BME280;17365;48.878;8.334;2022-11-15T10:19:42;99543.81;;;11.87;100.00
30598;BME280;17365;48.878;8.334;2022-11-15T10:24:43;99547.38;;;11.81;100.00
30598;BME280;17365;48.878;8.334;2022-11-15T10:27:14;99539.66;;;11.71;100.00
30598;BME280;17365;48.878;8.334;2022-11-15T10:29:48;99534.41;;;11.80;100.00
30598;BME280;17365;48.878;8.334;2022-11-15T10:32:16;99542.97;;;11.86;100.00
30598;BME280;17365;48.878;8.334;2022-11-15T10:34:42;99540.28;;;11.94;100.00
30598;BME280;17365;48.878;8.334;2022-11-15T10:37:08;99538.47;;;11.99;100.00
30598;BME280;17365;48.878;8.334;2022-11-15T10:39:33;99538.41;;;12.05;100.00
30598;BME280;17365;48.878;8.334;2022-11-15T10:42:24;99522.78;;;12.05;100.00
30598;BME280;17365;48.878;8.334;2022-11-15T10:44:50;99528.75;;;12.13;100.00
30598;BME280;17365;48.878;8.334;2022-11-15T10:47:26;99521.75;;;12.18;100.00
30598;BME280;17365;48.878;8.334;2022-11-15T10:49:57;99520.81;;;12.24;100.00
30598;BME280;17365;48.878;8.334;2022-11-15T10:52:23;99505.94;;;12.32;100.00
30598;BME280;17365;48.878;8.334;2022-11-15T10:54:56;99491.97;;;12.39;100.00
30598;BME280;17365;48.878;8.334;2022-11-15T10:57:29;99478.78;;;12.50;100.00
30598;BME280;17365;48.878;8.334;2022-11-15T11:00:01;99480.34;;;12.60;100.00
30598;BME280;17365;48.878;8.334;2022-11-15T11:02:30;99472.34;;;12.72;100.00
30598;BME280;17365;48.878;8.334;2022-11-15T11:04:56;99475.72;;;12.77;100.00
30598;BME280;17365;48.878;8.334;2022-11-15T11:07:28;99470.50;;;12.77;100.00
30598;BME280;17365;48.878;8.334;2022-11-15T11:09:59;99462.00;;;12.68;100.00
30598;BME280;17365;48.878;8.334;2022-11-15T11:12:30;99454.91;;;12.76;100.00
30598;BME280;17365;48.878;8.334;2022-11-15T11:14:57;99452.06;;;12.90;100.00
30598;BME280;17365;48.878;8.334;2022-11-15T11:23:16;99426.38;;;13.19;100.00
30598;BME280;17365;48.878;8.334;2022-11-15T11:28:44;99412.31;;;13.28;100.00
30598;BME280;17365;48.878;8.334;2022-11-15T11:40:07;99381.97;;;13.25;100.00
30598;BME280;17365;48.878;8.334;2022-11-15T11:51:05;99373.69;;;13.05;100.00
30598;BME280;17365;48.878;8.334;2022-11-15T11:53:57;99375.41;;;13.06;100.00
30598;BME280;17365;48.878;8.334;2022-11-15T11:56:31;99373.72;;;13.03;100.00
30598;BME280;17365;48.878;8.334;2022-11-15T11:59:17;99382.31;;;13.07;100.00
30598;BME280;17365;48.878;8.334;2022-11-15T12:01:44;99379.63;;;13.10;100.00
30598;BME280;17365;48.878;8.334;2022-11-15T12:04:20;99388.34;;;13.09;100.00
30598;BME280;17365;48.878;8.334;2022-11-15T12:06:50;99375.31;;;13.09;100.00
30598;BME280;17365;48.878;8.334;2022-11-15T12:09:41;99376.84;;;13.21;100.00
30598;BME280;17365;48.878;8.334;2022-11-15T12:12:39;99363.69;;;13.28;100.00
30598;BME280;17365;48.878;8.334;2022-11-15T12:17:35;99362.97;;;13.60;100.00
30598;BME280;17365;48.878;8.334;2022-11-15T12:20:23;99361.22;;;13.61;100.00
30598;BME280;17365;48.878;8.334;2022-11-15T12:22:57;99350.63;;;13.68;100.00
30598;BME280;17365;48.878;8.334;2022-11-15T12:25:49;99340.22;;;13.67;100.00
30598;BME280;17365;48.878;8.334;2022-11-15T12:28:31;99338.19;;;13.80;100.00
30598;BME280;17365;48.878;8.334;2022-11-15T12:31:15;99325.34;;;13.72;100.00
30598;BME280;17365;48.878;8.334;2022-11-15T12:33:47;99319.97;;;13.78;100.00
30598;BME280;17365;48.878;8.334;2022-11-15T12:38:58;99323.84;;;13.62;100.00
30598;BME280;17365;48.878;8.334;2022-11-15T12:41:32;99311.34;;;13.39;100.00
30598;BME280;17365;48.878;8.334;2022-11-15T12:43:58;99302.03;;;13.66;100.00
30598;BME280;17365;48.878;8.334;2022-11-15T12:49:24;99300.03;;;13.77;100.00
30598;BME280;17365;48.878;8.334;2022-11-15T13:02:40;99267.34;;;13.98;100.00
30598;BME280;17365;48.878;8.334;2022-11-15T13:17:49;99240.69;;;13.53;100.00
30598;BME280;17365;48.878;8.334;2022-11-15T13:30:39;99226.31;;;13.35;100.00
30598;BME280;17365;48.878;8.334;2022-11-15T13:33:13;99228.63;;;13.49;100.00
30598;BME280;17365;48.878;8.334;2022-11-15T13:35:40;99225.84;;;13.55;100.00
30598;BME280;17365;48.878;8.334;2022-11-15T13:38:18;99209.41;;;13.53;100.00
30598;BME280;17365;48.878;8.334;2022-11-15T13:40:45;99210.00;;;13.64;100.00
30598;BME280;17365;48.878;8.334;2022-11-15T13:46:05;99198.94;;;13.54;100.00
30598;BME280;17365;48.878;8.334;2022-11-15T13:48:31;99198.03;;;13.55;100.00
30598;BME280;17365;48.878;8.334;2022-11-15T13:50:59;99193.59;;;13.60;100.00
30598;BME280;17365;48.878;8.334;2022-11-15T13:53:25;99194.38;;;13.28;100.00
30598;BME280;17365;48.878;8.334;2022-11-15T13:55:51;99192.66;;;13.27;100.00
30598;BME280;17365;48.878;8.334;2022-11-15T13:58:19;99179.13;;;13.49;100.00
30598;BME280;17365;48.878;8.334;2022-11-15T14:00:44;99180.69;;;13.54;100.00
30598;BME280;17365;48.878;8.334;2022-11-15T14:03:26;99169.28;;;13.58;100.00
30598;BME280;17365;48.878;8.334;2022-11-15T14:06:16;99167.53;;;13.59;100.00
30598;BME280;17365;48.878;8.334;2022-11-15T14:11:22;99158.63;;;13.67;100.00
30598;BME280;17365;48.878;8.334;2022-11-15T14:16:39;99154.25;;;13.69;100.00
30598;BME280;17365;48.878;8.334;2022-11-15T14:19:06;99146.47;;;13.68;100.00
30598;BME280;17365;48.878;8.334;2022-11-15T14:21:34;99148.91;;;13.74;100.00
30598;BME280;17365;48.878;8.334;2022-11-15T14:26:41;99142.03;;;13.72;100.00
30598;BME280;17365;48.878;8.334;2022-11-15T14:29:27;99134.31;;;13.67;100.00
30598;BME280;17365;48.878;8.334;2022-11-15T14:32:05;99131.69;;;13.68;100.00
30598;BME280;17365;48.878;8.334;2022-11-15T14:34:32;99122.97;;;13.69;100.00
30598;BME280;17365;48.878;8.334;2022-11-15T14:36:57;99123.09;;;13.65;100.00
30598;BME280;17365;48.878;8.334;2022-11-15T14:39:22;99123.06;;;13.66;100.00
30598;BME280;17365;48.878;8.334;2022-11-15T14:41:49;99122.38;;;13.60;100.00
30598;BME280;17365;48.878;8.334;2022-11-15T14:44:14;99115.41;;;13.60;100.00
30598;BME280;17365;48.878;8.334;2022-11-15T14:46:43;99112.81;;;13.60;100.00
30598;BME280;17365;48.878;8.334;2022-11-15T14:49:09;99101.59;;;13.57;100.00
30598;BME280;17365;48.878;8.334;2022-11-15T14:51:34;99095.56;;;13.55;100.00
30598;BME280;17365;48.878;8.334;2022-11-15T14:54:00;99098.22;;;13.53;100.00
30598;BME280;17365;48.878;8.334;2022-11-15T14:56:25;99084.38;;;13.51;100.00
30598;BME280;17365;48.878;8.334;2022-11-15T14:58:51;99084.44;;;13.50;100.00
30598;BME280;17365;48.878;8.334;2022-11-15T15:01:22;99082.72;;;13.49;100.00
30598;BME280;17365;48.878;8.334;2022-11-15T15:03:48;99086.25;;;13.46;100.00